sensor_id;sensor_type;location;lat;lon;timestamp;P1;durP1;ratioP1;P2;durP2;ratioP2
22650;SDS011;11492;42.646;23.400;2023-10-31T00:01:14;11.27;;;4.72;;
22650;SDS011;11492;42.646;23.400;2023-10-31T00:03:42;11.95;;;5.03;;
22650;SDS011;11492;42.646;23.400;2023-10-31T00:06:12;12.60;;;4.75;;
22650;SDS011;11492;42.646;23.400;2023-10-31T00:08:39;16.10;;;4.47;;
22650;SDS011;11492;42.646;23.400;2023-10-31T00:11:07;12.75;;;4.80;;
22650;SDS011;11492;42.646;23.400;2023-10-31T00:13:37;12.98;;;5.10;;
22650;SDS011;11492;42.646;23.400;2023-10-31T00:16:03;15.95;;;5.10;;
22650;SDS011;11492;42.646;23.400;2023-10-31T00:18:30;12.98;;;4.85;;
22650;SDS011;11492;42.646;23.400;2023-10-31T00:21:01;18.38;;;4.80;;
22650;SDS011;11492;42.646;23.400;2023-10-31T00:23:29;15.85;;;4.47;;
22650;SDS011;11492;42.646;23.400;2023-10-31T00:25:56;15.30;;;4.93;;
22650;SDS011;11492;42.646;23.400;2023-10-31T00:28:27;15.05;;;4.57;;
22650;SDS011;11492;42.646;23.400;2023-10-31T00:30:54;12.55;;;4.90;;
22650;SDS011;11492;42.646;23.400;2023-10-31T00:33:28;14.50;;;4.93;;
22650;SDS011;11492;42.646;23.400;2023-10-31T00:35:58;12.65;;;4.72;;
22650;SDS011;11492;42.646;23.400;2023-10-31T00:38:31;10.40;;;4.53;;
22650;SDS011;11492;42.646;23.400;2023-10-31T00:41:01;15.02;;;5.07;;
22650;SDS011;11492;42.646;23.400;2023-10-31T00:43:30;10.90;;;4.32;;
22650;SDS011;11492;42.646;23.400;2023-10-31T00:45:55;11.68;;;4.40;;
22650;SDS011;11492;42.646;23.400;2023-10-31T00:48:23;17.50;;;4.78;;
22650;SDS011;11492;42.646;23.400;2023-10-31T00:50:54;12.32;;;4.32;;
22650;SDS011;11492;42.646;23.400;2023-10-31T00:53:25;13.88;;;4.90;;
22650;SDS011;11492;42.646;23.400;2023-10-31T00:55:53;9.85;;;4.28;;
22650;SDS011;11492;42.646;23.400;2023-10-31T00:58:19;7.10;;;4.25;;
22650;SDS011;11492;42.646;23.400;2023-10-31T01:00:50;13.73;;;4.78;;
22650;SDS011;11492;42.646;23.400;2023-10-31T01:03:18;10.95;;;4.78;;
22650;SDS011;11492;42.646;23.400;2023-10-31T01:05:48;9.18;;;4.20;;
22650;SDS011;11492;42.646;23.400;2023-10-31T01:08:18;8.27;;;4.47;;
22650;SDS011;11492;42.646;23.400;2023-10-31T01:10:49;15.25;;;4.72;;
22650;SDS011;11492;42.646;23.400;2023-10-31T01:13:17;11.70;;;5.03;;
22650;SDS011;11492;42.646;23.400;2023-10-31T01:15:45;11.75;;;4.78;;
22650;SDS011;11492;42.646;23.400;2023-10-31T01:18:16;15.88;;;4.55;;
22650;SDS011;11492;42.646;23.400;2023-10-31T01:20:42;12.55;;;4.35;;
22650;SDS011;11492;42.646;23.400;2023-10-31T01:23:18;13.57;;;4.60;;
22650;SDS011;11492;42.646;23.400;2023-10-31T01:25:48;9.82;;;4.70;;
22650;SDS011;11492;42.646;23.400;2023-10-31T01:28:16;10.77;;;4.63;;
22650;SDS011;11492;42.646;23.400;2023-10-31T01:30:44;12.98;;;4.47;;
22650;SDS011;11492;42.646;23.400;2023-10-31T01:33:10;12.55;;;4.22;;
22650;SDS011;11492;42.646;23.400;2023-10-31T01:35:40;12.43;;;4.40;;
22650;SDS011;11492;42.646;23.400;2023-10-31T01:38:13;8.20;;;4.53;;
22650;SDS011;11492;42.646;23.400;2023-10-31T01:40:43;11.23;;;4.25;;
22650;SDS011;11492;42.646;23.400;2023-10-31T01:43:13;16.88;;;4.53;;
22650;SDS011;11492;42.646;23.400;2023-10-31T01:45:59;9.68;;;4.35;;
22650;SDS011;11492;42.646;23.400;2023-10-31T01:48:27;12.10;;;4.32;;
22650;SDS011;11492;42.646;23.400;2023-10-31T01:50:59;9.40;;;4.28;;
22650;SDS011;11492;42.646;23.400;2023-10-31T01:53:36;13.15;;;4.38;;
22650;SDS011;11492;42.646;23.400;2023-10-31T01:56:03;13.50;;;4.80;;
22650;SDS011;11492;42.646;23.400;2023-10-31T01:58:38;8.95;;;4.00;;
22650;SDS011;11492;42.646;23.400;2023-10-31T02:01:08;8.82;;;4.20;;
22650;SDS011;11492;42.646;23.400;2023-10-31T02:03:41;8.45;;;4.10;;
22650;SDS011;11492;42.646;23.400;2023-10-31T02:06:06;12.30;;;4.60;;
22650;SDS011;11492;42.646;23.400;2023-10-31T02:08:37;19.05;;;4.40;;
22650;SDS011;11492;42.646;23.400;2023-10-31T02:11:08;10.80;;;4.38;;
22650;SDS011;11492;42.646;23.400;2023-10-31T02:13:35;8.65;;;4.28;;
22650;SDS011;11492;42.646;23.400;2023-10-31T02:16:11;11.45;;;3.95;;
22650;SDS011;11492;42.646;23.400;2023-10-31T02:18:44;11.17;;;3.77;;
22650;SDS011;11492;42.646;23.400;2023-10-31T02:21:14;10.52;;;4.07;;
22650;SDS011;11492;42.646;23.400;2023-10-31T02:23:54;11.05;;;4.30;;
22650;SDS011;11492;42.646;23.400;2023-10-31T02:26:29;9.93;;;4.10;;
22650;SDS011;11492;42.646;23.400;2023-10-31T02:29:03;8.05;;;3.90;;
22650;SDS011;11492;42.646;23.400;2023-10-31T02:31:31;16.38;;;4.10;;
22650;SDS011;11492;42.646;23.400;2023-10-31T02:33:58;10.15;;;3.95;;
22650;SDS011;11492;42.646;23.400;2023-10-31T02:36:28;12.63;;;4.13;;
22650;SDS011;11492;42.646;23.400;2023-10-31T02:38:56;10.70;;;3.85;;
22650;SDS011;11492;42.646;23.400;2023-10-31T02:41:27;8.88;;;4.10;;
22650;SDS011;11492;42.646;23.400;2023-10-31T02:43:55;13.43;;;4.20;;
22650;SDS011;11492;42.646;23.400;2023-10-31T02:46:26;11.32;;;4.03;;
22650;SDS011;11492;42.646;23.400;2023-10-31T02:48:54;8.27;;;3.80;;
22650;SDS011;11492;42.646;23.400;2023-10-31T02:51:22;7.43;;;3.50;;
22650;SDS011;11492;42.646;23.400;2023-10-31T02:53:49;12.73;;;4.53;;
22650;SDS011;11492;42.646;23.400;2023-10-31T02:56:17;11.52;;;4.03;;
22650;SDS011;11492;42.646;23.400;2023-10-31T02:58:50;6.47;;;3.20;;
22650;SDS011;11492;42.646;23.400;2023-10-31T03:01:23;13.52;;;4.05;;
22650;SDS011;11492;42.646;23.400;2023-10-31T03:03:49;13.90;;;4.10;;
22650;SDS011;11492;42.646;23.400;2023-10-31T03:06:16;13.48;;;4.38;;
22650;SDS011;11492;42.646;23.400;2023-10-31T03:08:44;13.75;;;4.78;;
22650;SDS011;11492;42.646;23.400;2023-10-31T03:11:24;12.57;;;4.15;;
22650;SDS011;11492;42.646;23.400;2023-10-31T03:13:57;9.03;;;4.37;;
22650;SDS011;11492;42.646;23.400;2023-10-31T03:16:30;12.38;;;4.10;;
22650;SDS011;11492;42.646;23.400;2023-10-31T03:19:00;13.68;;;4.50;;
22650;SDS011;11492;42.646;23.400;2023-10-31T03:21:31;15.82;;;4.70;;
22650;SDS011;11492;42.646;23.400;2023-10-31T03:24:02;12.40;;;4.97;;
22650;SDS011;11492;42.646;23.400;2023-10-31T03:26:30;13.60;;;5.28;;
22650;SDS011;11492;42.646;23.400;2023-10-31T03:29:01;17.33;;;5.85;;
22650;SDS011;11492;42.646;23.400;2023-10-31T03:31:30;16.88;;;6.00;;
22650;SDS011;11492;42.646;23.400;2023-10-31T03:33:58;13.25;;;5.47;;
22650;SDS011;11492;42.646;23.400;2023-10-31T03:36:28;17.45;;;5.63;;
22650;SDS011;11492;42.646;23.400;2023-10-31T03:38:56;15.48;;;5.20;;
22650;SDS011;11492;42.646;23.400;2023-10-31T03:41:27;14.88;;;5.80;;
22650;SDS011;11492;42.646;23.400;2023-10-31T03:44:00;13.73;;;5.38;;
22650;SDS011;11492;42.646;23.400;2023-10-31T03:46:30;15.07;;;5.50;;
22650;SDS011;11492;42.646;23.400;2023-10-31T03:49:04;14.32;;;5.35;;
22650;SDS011;11492;42.646;23.400;2023-10-31T03:51:32;13.15;;;5.32;;
22650;SDS011;11492;42.646;23.400;2023-10-31T03:54:03;12.48;;;4.47;;
22650;SDS011;11492;42.646;23.400;2023-10-31T03:56:44;14.38;;;5.32;;
22650;SDS011;11492;42.646;23.400;2023-10-31T03:59:12;15.77;;;6.03;;
22650;SDS011;11492;42.646;23.400;2023-10-31T04:01:37;15.75;;;6.00;;
22650;SDS011;11492;42.646;23.400;2023-10-31T04:04:05;17.17;;;5.90;;
22650;SDS011;11492;42.646;23.400;2023-10-31T04:06:36;15.48;;;5.35;;
22650;SDS011;11492;42.646;23.400;2023-10-31T04:09:04;13.30;;;5.03;;
22650;SDS011;11492;42.646;23.400;2023-10-31T04:11:36;14.98;;;4.68;;
22650;SDS011;11492;42.646;23.400;2023-10-31T04:14:06;14.10;;;4.70;;
22650;SDS011;11492;42.646;23.400;2023-10-31T04:16:38;11.57;;;4.32;;
22650;SDS011;11492;42.646;23.400;2023-10-31T04:19:07;12.57;;;4.43;;
22650;SDS011;11492;42.646;23.400;2023-10-31T04:21:37;11.07;;;4.32;;
22650;SDS011;11492;42.646;23.400;2023-10-31T04:24:08;10.40;;;3.90;;
22650;SDS011;11492;42.646;23.400;2023-10-31T04:26:36;9.05;;;4.20;;
22650;SDS011;11492;42.646;23.400;2023-10-31T04:29:09;13.23;;;4.25;;
22650;SDS011;11492;42.646;23.400;2023-10-31T04:31:45;11.88;;;4.05;;
22650;SDS011;11492;42.646;23.400;2023-10-31T04:34:13;11.95;;;4.20;;
22650;SDS011;11492;42.646;23.400;2023-10-31T04:36:46;9.13;;;4.07;;
22650;SDS011;11492;42.646;23.400;2023-10-31T04:39:12;11.25;;;4.18;;
22650;SDS011;11492;42.646;23.400;2023-10-31T04:41:40;9.38;;;4.18;;
22650;SDS011;11492;42.646;23.400;2023-10-31T04:44:08;11.95;;;4.43;;
22650;SDS011;11492;42.646;23.400;2023-10-31T04:46:40;7.38;;;3.88;;
22650;SDS011;11492;42.646;23.400;2023-10-31T04:49:15;13.88;;;4.07;;
22650;SDS011;11492;42.646;23.400;2023-10-31T04:51:48;20.48;;;4.10;;
22650;SDS011;11492;42.646;23.400;2023-10-31T04:54:20;12.85;;;4.18;;
22650;SDS011;11492;42.646;23.400;2023-10-31T04:56:53;9.63;;;3.58;;
22650;SDS011;11492;42.646;23.400;2023-10-31T04:59:21;9.88;;;4.03;;
22650;SDS011;11492;42.646;23.400;2023-10-31T05:01:49;13.25;;;4.20;;
22650;SDS011;11492;42.646;23.400;2023-10-31T05:04:22;9.50;;;4.03;;
22650;SDS011;11492;42.646;23.400;2023-10-31T05:06:56;13.63;;;4.10;;
22650;SDS011;11492;42.646;23.400;2023-10-31T05:09:22;14.43;;;4.25;;
22650;SDS011;11492;42.646;23.400;2023-10-31T05:11:53;10.00;;;4.18;;
22650;SDS011;11492;42.646;23.400;2023-10-31T05:14:23;11.18;;;4.32;;
22650;SDS011;11492;42.646;23.400;2023-10-31T05:16:51;10.88;;;3.78;;
22650;SDS011;11492;42.646;23.400;2023-10-31T05:19:24;9.20;;;3.72;;
22650;SDS011;11492;42.646;23.400;2023-10-31T05:21:55;16.17;;;4.00;;
22650;SDS011;11492;42.646;23.400;2023-10-31T05:24:23;8.27;;;3.75;;
22650;SDS011;11492;42.646;23.400;2023-10-31T05:26:59;7.03;;;3.78;;
22650;SDS011;11492;42.646;23.400;2023-10-31T05:29:27;7.55;;;3.78;;
22650;SDS011;11492;42.646;23.400;2023-10-31T05:31:55;11.82;;;3.70;;
22650;SDS011;11492;42.646;23.400;2023-10-31T05:34:23;10.23;;;3.60;;
22650;SDS011;11492;42.646;23.400;2023-10-31T05:36:53;14.32;;;3.60;;
22650;SDS011;11492;42.646;23.400;2023-10-31T05:39:23;10.07;;;4.13;;
22650;SDS011;11492;42.646;23.400;2023-10-31T05:41:50;10.95;;;3.63;;
22650;SDS011;11492;42.646;23.400;2023-10-31T05:44:20;18.40;;;4.50;;
22650;SDS011;11492;42.646;23.400;2023-10-31T05:46:48;13.23;;;4.40;;
22650;SDS011;11492;42.646;23.400;2023-10-31T05:49:21;10.00;;;3.65;;
22650;SDS011;11492;42.646;23.400;2023-10-31T05:51:52;5.43;;;3.38;;
22650;SDS011;11492;42.646;23.400;2023-10-31T05:54:22;9.77;;;3.67;;
22650;SDS011;11492;42.646;23.400;2023-10-31T05:56:50;8.25;;;3.30;;
22650;SDS011;11492;42.646;23.400;2023-10-31T05:59:20;12.75;;;3.97;;
22650;SDS011;11492;42.646;23.400;2023-10-31T06:01:54;15.68;;;6.13;;
22650;SDS011;11492;42.646;23.400;2023-10-31T06:04:22;17.15;;;7.18;;
22650;SDS011;11492;42.646;23.400;2023-10-31T06:06:52;13.40;;;4.50;;
22650;SDS011;11492;42.646;23.400;2023-10-31T06:09:22;13.57;;;4.50;;
22650;SDS011;11492;42.646;23.400;2023-10-31T06:11:52;9.38;;;4.35;;
22650;SDS011;11492;42.646;23.400;2023-10-31T06:14:20;17.77;;;3.90;;
22650;SDS011;11492;42.646;23.400;2023-10-31T06:16:50;14.00;;;4.57;;
22650;SDS011;11492;42.646;23.400;2023-10-31T06:19:21;10.93;;;4.10;;
22650;SDS011;11492;42.646;23.400;2023-10-31T06:21:49;15.95;;;4.95;;
22650;SDS011;11492;42.646;23.400;2023-10-31T06:24:20;9.33;;;4.30;;
22650;SDS011;11492;42.646;23.400;2023-10-31T06:26:45;16.70;;;5.00;;
22650;SDS011;11492;42.646;23.400;2023-10-31T06:29:13;13.27;;;3.45;;
22650;SDS011;11492;42.646;23.400;2023-10-31T06:31:43;10.70;;;3.55;;
22650;SDS011;11492;42.646;23.400;2023-10-31T06:34:11;13.68;;;3.70;;
22650;SDS011;11492;42.646;23.400;2023-10-31T06:36:43;6.90;;;3.30;;
22650;SDS011;11492;42.646;23.400;2023-10-31T06:39:19;8.80;;;3.15;;
22650;SDS011;11492;42.646;23.400;2023-10-31T06:41:50;18.20;;;3.42;;
22650;SDS011;11492;42.646;23.400;2023-10-31T06:44:24;8.05;;;3.40;;
22650;SDS011;11492;42.646;23.400;2023-10-31T06:46:52;9.20;;;3.50;;
22650;SDS011;11492;42.646;23.400;2023-10-31T06:49:24;15.25;;;3.33;;
22650;SDS011;11492;42.646;23.400;2023-10-31T06:51:53;15.65;;;4.28;;
22650;SDS011;11492;42.646;23.400;2023-10-31T06:54:20;22.23;;;8.82;;
22650;SDS011;11492;42.646;23.400;2023-10-31T06:56:51;26.30;;;7.78;;
22650;SDS011;11492;42.646;23.400;2023-10-31T06:59:18;24.15;;;7.50;;
22650;SDS011;11492;42.646;23.400;2023-10-31T07:01:51;30.00;;;6.88;;
22650;SDS011;11492;42.646;23.400;2023-10-31T07:04:19;17.88;;;5.57;;
22650;SDS011;11492;42.646;23.400;2023-10-31T07:06:47;15.38;;;5.50;;
22650;SDS011;11492;42.646;23.400;2023-10-31T07:09:24;15.60;;;4.55;;
22650;SDS011;11492;42.646;23.400;2023-10-31T07:11:52;15.48;;;6.18;;
22650;SDS011;11492;42.646;23.400;2023-10-31T07:14:22;19.38;;;7.10;;
22650;SDS011;11492;42.646;23.400;2023-10-31T07:16:50;20.52;;;7.50;;
22650;SDS011;11492;42.646;23.400;2023-10-31T07:19:18;22.58;;;7.85;;
22650;SDS011;11492;42.646;23.400;2023-10-31T07:21:51;18.15;;;7.70;;
22650;SDS011;11492;42.646;23.400;2023-10-31T07:24:21;25.33;;;7.57;;
22650;SDS011;11492;42.646;23.400;2023-10-31T07:26:54;20.20;;;6.63;;
22650;SDS011;11492;42.646;23.400;2023-10-31T07:29:20;23.80;;;6.88;;
22650;SDS011;11492;42.646;23.400;2023-10-31T07:31:48;14.93;;;5.30;;
22650;SDS011;11492;42.646;23.400;2023-10-31T07:34:15;21.92;;;6.30;;
22650;SDS011;11492;42.646;23.400;2023-10-31T07:36:44;13.40;;;4.32;;
22650;SDS011;11492;42.646;23.400;2023-10-31T07:39:12;14.23;;;4.53;;
22650;SDS011;11492;42.646;23.400;2023-10-31T07:41:42;15.77;;;4.65;;
22650;SDS011;11492;42.646;23.400;2023-10-31T07:44:11;26.63;;;4.13;;
22650;SDS011;11492;42.646;23.400;2023-10-31T07:46:44;11.80;;;3.80;;
22650;SDS011;11492;42.646;23.400;2023-10-31T07:49:12;11.60;;;3.72;;
22650;SDS011;11492;42.646;23.400;2023-10-31T07:51:45;11.35;;;3.90;;
22650;SDS011;11492;42.646;23.400;2023-10-31T07:54:13;21.52;;;3.90;;
22650;SDS011;11492;42.646;23.400;2023-10-31T07:56:42;12.80;;;4.18;;
22650;SDS011;11492;42.646;23.400;2023-10-31T07:59:12;14.90;;;6.00;;
22650;SDS011;11492;42.646;23.400;2023-10-31T08:01:40;16.25;;;5.35;;
22650;SDS011;11492;42.646;23.400;2023-10-31T08:04:10;13.05;;;4.28;;
22650;SDS011;11492;42.646;23.400;2023-10-31T08:06:43;9.37;;;4.07;;
22650;SDS011;11492;42.646;23.400;2023-10-31T08:09:13;25.48;;;4.95;;
22650;SDS011;11492;42.646;23.400;2023-10-31T08:11:45;18.30;;;5.75;;
22650;SDS011;11492;42.646;23.400;2023-10-31T08:14:11;11.15;;;4.85;;
22650;SDS011;11492;42.646;23.400;2023-10-31T08:16:37;9.77;;;4.72;;
22650;SDS011;11492;42.646;23.400;2023-10-31T08:19:04;18.58;;;5.05;;
22650;SDS011;11492;42.646;23.400;2023-10-31T08:21:35;13.77;;;5.18;;
22650;SDS011;11492;42.646;23.400;2023-10-31T08:24:04;13.60;;;4.75;;
22650;SDS011;11492;42.646;23.400;2023-10-31T08:26:39;16.83;;;4.55;;
22650;SDS011;11492;42.646;23.400;2023-10-31T08:29:05;18.67;;;4.43;;
22650;SDS011;11492;42.646;23.400;2023-10-31T08:31:33;14.25;;;4.70;;
22650;SDS011;11492;42.646;23.400;2023-10-31T08:34:03;13.90;;;4.63;;
22650;SDS011;11492;42.646;23.400;2023-10-31T08:36:29;14.88;;;4.95;;
22650;SDS011;11492;42.646;23.400;2023-10-31T08:38:57;12.32;;;5.57;;
22650;SDS011;11492;42.646;23.400;2023-10-31T08:41:27;15.40;;;4.53;;
22650;SDS011;11492;42.646;23.400;2023-10-31T08:43:57;18.83;;;5.57;;
22650;SDS011;11492;42.646;23.400;2023-10-31T08:46:28;19.92;;;5.00;;
22650;SDS011;11492;42.646;23.400;2023-10-31T08:48:56;20.25;;;5.13;;
22650;SDS011;11492;42.646;23.400;2023-10-31T08:51:22;17.42;;;5.07;;
22650;SDS011;11492;42.646;23.400;2023-10-31T08:53:52;22.10;;;5.38;;
22650;SDS011;11492;42.646;23.400;2023-10-31T08:56:23;18.23;;;5.07;;
22650;SDS011;11492;42.646;23.400;2023-10-31T08:58:51;20.85;;;5.03;;
22650;SDS011;11492;42.646;23.400;2023-10-31T09:01:21;15.50;;;4.63;;
22650;SDS011;11492;42.646;23.400;2023-10-31T09:03:50;18.85;;;4.97;;
22650;SDS011;11492;42.646;23.400;2023-10-31T09:06:20;11.00;;;4.63;;
22650;SDS011;11492;42.646;23.400;2023-10-31T09:08:50;19.48;;;4.82;;
22650;SDS011;11492;42.646;23.400;2023-10-31T09:11:17;24.50;;;5.10;;
22650;SDS011;11492;42.646;23.400;2023-10-31T09:13:50;15.23;;;5.10;;
22650;SDS011;11492;42.646;23.400;2023-10-31T09:16:20;11.77;;;4.75;;
22650;SDS011;11492;42.646;23.400;2023-10-31T09:18:51;12.00;;;4.60;;
22650;SDS011;11492;42.646;23.400;2023-10-31T09:21:17;14.38;;;4.75;;
22650;SDS011;11492;42.646;23.400;2023-10-31T09:23:43;25.65;;;4.63;;
22650;SDS011;11492;42.646;23.400;2023-10-31T09:26:11;14.23;;;4.68;;
22650;SDS011;11492;42.646;23.400;2023-10-31T09:28:39;16.73;;;4.47;;
22650;SDS011;11492;42.646;23.400;2023-10-31T09:31:15;15.82;;;4.60;;
22650;SDS011;11492;42.646;23.400;2023-10-31T09:33:44;19.88;;;4.03;;
22650;SDS011;11492;42.646;23.400;2023-10-31T09:36:15;16.17;;;4.03;;
22650;SDS011;11492;42.646;23.400;2023-10-31T09:38:44;21.15;;;4.70;;
22650;SDS011;11492;42.646;23.400;2023-10-31T09:41:12;16.02;;;4.30;;
22650;SDS011;11492;42.646;23.400;2023-10-31T09:43:42;18.73;;;3.83;;
22650;SDS011;11492;42.646;23.400;2023-10-31T09:46:13;17.85;;;4.10;;
22650;SDS011;11492;42.646;23.400;2023-10-31T09:48:43;14.82;;;4.70;;
22650;SDS011;11492;42.646;23.400;2023-10-31T09:51:09;13.05;;;4.43;;
22650;SDS011;11492;42.646;23.400;2023-10-31T09:53:39;19.45;;;3.85;;
22650;SDS011;11492;42.646;23.400;2023-10-31T09:56:11;10.25;;;3.70;;
22650;SDS011;11492;42.646;23.400;2023-10-31T09:58:36;9.48;;;4.05;;
22650;SDS011;11492;42.646;23.400;2023-10-31T10:01:06;16.50;;;3.80;;
22650;SDS011;11492;42.646;23.400;2023-10-31T10:03:36;10.10;;;3.45;;
22650;SDS011;11492;42.646;23.400;2023-10-31T10:06:05;21.08;;;4.15;;
22650;SDS011;11492;42.646;23.400;2023-10-31T10:08:34;13.77;;;4.22;;
22650;SDS011;11492;42.646;23.400;2023-10-31T10:11:06;15.50;;;4.18;;
22650;SDS011;11492;42.646;23.400;2023-10-31T10:13:31;15.15;;;4.55;;
22650;SDS011;11492;42.646;23.400;2023-10-31T10:16:00;20.13;;;5.32;;
22650;SDS011;11492;42.646;23.400;2023-10-31T10:18:34;18.42;;;6.13;;
22650;SDS011;11492;42.646;23.400;2023-10-31T10:21:05;19.17;;;6.60;;
22650;SDS011;11492;42.646;23.400;2023-10-31T10:23:35;22.92;;;9.38;;
22650;SDS011;11492;42.646;23.400;2023-10-31T10:26:10;17.85;;;6.43;;
22650;SDS011;11492;42.646;23.400;2023-10-31T10:28:37;28.80;;;9.02;;
22650;SDS011;11492;42.646;23.400;2023-10-31T10:31:03;26.13;;;8.68;;
22650;SDS011;11492;42.646;23.400;2023-10-31T10:33:33;23.20;;;8.50;;
22650;SDS011;11492;42.646;23.400;2023-10-31T10:36:06;30.23;;;8.75;;
22650;SDS011;11492;42.646;23.400;2023-10-31T10:38:41;23.40;;;7.10;;
22650;SDS011;11492;42.646;23.400;2023-10-31T10:41:12;21.58;;;7.38;;
22650;SDS011;11492;42.646;23.400;2023-10-31T10:46:17;26.13;;;7.63;;
22650;SDS011;11492;42.646;23.400;2023-10-31T10:48:54;29.95;;;9.00;;
22650;SDS011;11492;42.646;23.400;2023-10-31T10:51:31;22.92;;;8.73;;
22650;SDS011;11492;42.646;23.400;2023-10-31T10:54:05;22.33;;;9.93;;
22650;SDS011;11492;42.646;23.400;2023-10-31T10:56:54;34.10;;;11.95;;
22650;SDS011;11492;42.646;23.400;2023-10-31T10:59:31;36.25;;;10.38;;
22650;SDS011;11492;42.646;23.400;2023-10-31T11:02:08;28.48;;;9.75;;
22650;SDS011;11492;42.646;23.400;2023-10-31T11:04:42;27.40;;;10.32;;
22650;SDS011;11492;42.646;23.400;2023-10-31T11:07:15;30.88;;;10.65;;
22650;SDS011;11492;42.646;23.400;2023-10-31T11:09:50;26.33;;;8.75;;
22650;SDS011;11492;42.646;23.400;2023-10-31T11:12:24;27.90;;;9.77;;
22650;SDS011;11492;42.646;23.400;2023-10-31T11:14:56;32.50;;;9.50;;
22650;SDS011;11492;42.646;23.400;2023-10-31T11:17:28;29.50;;;8.30;;
22650;SDS011;11492;42.646;23.400;2023-10-31T11:20:02;27.85;;;7.47;;
22650;SDS011;11492;42.646;23.400;2023-10-31T11:22:38;24.52;;;5.90;;
22650;SDS011;11492;42.646;23.400;2023-10-31T11:25:12;22.90;;;5.45;;
22650;SDS011;11492;42.646;23.400;2023-10-31T11:27:40;24.67;;;6.88;;
22650;SDS011;11492;42.646;23.400;2023-10-31T11:30:10;20.83;;;6.38;;
22650;SDS011;11492;42.646;23.400;2023-10-31T11:32:47;21.83;;;6.78;;
22650;SDS011;11492;42.646;23.400;2023-10-31T11:35:36;25.35;;;5.95;;
22650;SDS011;11492;42.646;23.400;2023-10-31T11:38:05;33.95;;;6.32;;
22650;SDS011;11492;42.646;23.400;2023-10-31T11:40:39;18.40;;;7.47;;
22650;SDS011;11492;42.646;23.400;2023-10-31T11:43:51;20.80;;;7.57;;
22650;SDS011;11492;42.646;23.400;2023-10-31T11:46:20;24.15;;;7.70;;
22650;SDS011;11492;42.646;23.400;2023-10-31T11:48:51;22.25;;;5.80;;
22650;SDS011;11492;42.646;23.400;2023-10-31T11:51:23;25.17;;;7.10;;
22650;SDS011;11492;42.646;23.400;2023-10-31T11:53:51;23.80;;;7.72;;
22650;SDS011;11492;42.646;23.400;2023-10-31T11:56:20;25.95;;;7.53;;
22650;SDS011;11492;42.646;23.400;2023-10-31T11:59:05;27.13;;;7.22;;
22650;SDS011;11492;42.646;23.400;2023-10-31T12:01:48;36.10;;;7.32;;
22650;SDS011;11492;42.646;23.400;2023-10-31T12:04:27;23.83;;;6.82;;
22650;SDS011;11492;42.646;23.400;2023-10-31T12:07:01;26.40;;;7.28;;
22650;SDS011;11492;42.646;23.400;2023-10-31T12:09:33;20.90;;;5.97;;
22650;SDS011;11492;42.646;23.400;2023-10-31T12:12:03;22.90;;;6.43;;
22650;SDS011;11492;42.646;23.400;2023-10-31T12:14:34;22.42;;;7.05;;
22650;SDS011;11492;42.646;23.400;2023-10-31T12:17:07;29.63;;;6.90;;
22650;SDS011;11492;42.646;23.400;2023-10-31T12:19:35;21.38;;;6.10;;
22650;SDS011;11492;42.646;23.400;2023-10-31T12:22:12;20.25;;;6.35;;
22650;SDS011;11492;42.646;23.400;2023-10-31T12:24:43;24.42;;;5.45;;
22650;SDS011;11492;42.646;23.400;2023-10-31T12:27:08;25.90;;;6.68;;
22650;SDS011;11492;42.646;23.400;2023-10-31T12:29:39;22.17;;;5.53;;
22650;SDS011;11492;42.646;23.400;2023-10-31T12:32:11;24.95;;;5.50;;
22650;SDS011;11492;42.646;23.400;2023-10-31T12:34:43;16.80;;;4.93;;
22650;SDS011;11492;42.646;23.400;2023-10-31T12:37:15;16.58;;;4.90;;
22650;SDS011;11492;42.646;23.400;2023-10-31T12:39:51;21.00;;;4.15;;
22650;SDS011;11492;42.646;23.400;2023-10-31T12:42:25;15.25;;;4.32;;
22650;SDS011;11492;42.646;23.400;2023-10-31T12:44:55;18.15;;;5.35;;
22650;SDS011;11492;42.646;23.400;2023-10-31T12:47:26;12.35;;;4.00;;
22650;SDS011;11492;42.646;23.400;2023-10-31T12:50:13;21.27;;;4.28;;
22650;SDS011;11492;42.646;23.400;2023-10-31T12:52:53;20.33;;;5.00;;
22650;SDS011;11492;42.646;23.400;2023-10-31T12:55:23;20.23;;;4.57;;
22650;SDS011;11492;42.646;23.400;2023-10-31T12:57:53;26.88;;;5.60;;
22650;SDS011;11492;42.646;23.400;2023-10-31T13:00:29;16.98;;;4.85;;
22650;SDS011;11492;42.646;23.400;2023-10-31T13:03:03;20.83;;;7.63;;
22650;SDS011;11492;42.646;23.400;2023-10-31T13:05:35;25.35;;;6.10;;
22650;SDS011;11492;42.646;23.400;2023-10-31T13:08:15;18.50;;;6.85;;
22650;SDS011;11492;42.646;23.400;2023-10-31T13:10:47;18.92;;;5.20;;
22650;SDS011;11492;42.646;23.400;2023-10-31T13:13:15;38.22;;;5.20;;
22650;SDS011;11492;42.646;23.400;2023-10-31T13:15:45;34.00;;;6.90;;
22650;SDS011;11492;42.646;23.400;2023-10-31T13:18:13;41.33;;;9.27;;
22650;SDS011;11492;42.646;23.400;2023-10-31T13:20:41;23.25;;;5.90;;
22650;SDS011;11492;42.646;23.400;2023-10-31T13:23:07;68.50;;;5.97;;
22650;SDS011;11492;42.646;23.400;2023-10-31T13:25:32;51.78;;;5.90;;
22650;SDS011;11492;42.646;23.400;2023-10-31T13:28:02;28.08;;;4.82;;
22650;SDS011;11492;42.646;23.400;2023-10-31T13:30:34;23.55;;;4.65;;
22650;SDS011;11492;42.646;23.400;2023-10-31T13:33:04;38.10;;;5.20;;
22650;SDS011;11492;42.646;23.400;2023-10-31T13:35:32;27.83;;;5.40;;
22650;SDS011;11492;42.646;23.400;2023-10-31T13:38:01;25.63;;;4.90;;
22650;SDS011;11492;42.646;23.400;2023-10-31T13:40:31;23.00;;;5.20;;
22650;SDS011;11492;42.646;23.400;2023-10-31T13:43:04;20.42;;;4.88;;
22650;SDS011;11492;42.646;23.400;2023-10-31T13:45:38;20.50;;;4.32;;
22650;SDS011;11492;42.646;23.400;2023-10-31T13:48:08;17.20;;;4.22;;
22650;SDS011;11492;42.646;23.400;2023-10-31T13:50:36;14.27;;;4.35;;
22650;SDS011;11492;42.646;23.400;2023-10-31T13:53:07;22.63;;;4.22;;
22650;SDS011;11492;42.646;23.400;2023-10-31T13:55:40;27.25;;;4.35;;
22650;SDS011;11492;42.646;23.400;2023-10-31T13:58:11;34.90;;;4.68;;
22650;SDS011;11492;42.646;23.400;2023-10-31T14:00:46;22.67;;;4.22;;
22650;SDS011;11492;42.646;23.400;2023-10-31T14:03:17;18.73;;;4.03;;
22650;SDS011;11492;42.646;23.400;2023-10-31T14:05:45;23.33;;;4.47;;
22650;SDS011;11492;42.646;23.400;2023-10-31T14:08:10;20.30;;;4.57;;
22650;SDS011;11492;42.646;23.400;2023-10-31T14:10:39;17.38;;;4.40;;
22650;SDS011;11492;42.646;23.400;2023-10-31T14:13:11;22.23;;;5.55;;
22650;SDS011;11492;42.646;23.400;2023-10-31T14:15:39;30.63;;;6.18;;
22650;SDS011;11492;42.646;23.400;2023-10-31T14:18:07;21.42;;;4.30;;
22650;SDS011;11492;42.646;23.400;2023-10-31T14:20:36;25.23;;;5.00;;
22650;SDS011;11492;42.646;23.400;2023-10-31T14:23:05;24.10;;;5.20;;
22650;SDS011;11492;42.646;23.400;2023-10-31T14:25:33;25.08;;;4.97;;
22650;SDS011;11492;42.646;23.400;2023-10-31T14:28:06;54.10;;;9.32;;
22650;SDS011;11492;42.646;23.400;2023-10-31T14:30:36;40.65;;;8.10;;
22650;SDS011;11492;42.646;23.400;2023-10-31T14:33:11;30.33;;;6.38;;
22650;SDS011;11492;42.646;23.400;2023-10-31T14:35:38;31.75;;;6.50;;
22650;SDS011;11492;42.646;23.400;2023-10-31T14:38:11;21.73;;;5.80;;
22650;SDS011;11492;42.646;23.400;2023-10-31T14:40:36;22.50;;;4.80;;
22650;SDS011;11492;42.646;23.400;2023-10-31T14:43:05;25.98;;;4.82;;
22650;SDS011;11492;42.646;23.400;2023-10-31T14:45:37;33.30;;;5.35;;